Strongs, Michigan
Current Conditions -  °F | °C
As of 4:15 PM on Monday 22 Dec 2014 (Local Time) from KERY Reporting Station
Clear Clear  
Wind Chill: 24°   Ceiling: Unl
Heat Index: 32°   Visibility: 10mi
Dew Point: 28°   Wind: 10mph
Humidity: 83%   Direction: 120°ESE
Pressure: 29.94"   Gusts: NA
Location:  46.36°N, 84.97°W
Report Text: KERY 222115Z AUTO 12009KT 10SM CLR 00/M02 A2994 RMK AO2 T00001025
Loading
Personal Weather Stations






























Interactive Weather Map New forecast layout! Learn more

10-Day Weather Forecast

Advertisements
Track Severe Weather on mobile